x

8447387 - Borden Flats Light At Fall River, Ma (bltm3) Weather Station

12:54 - Tue 28th Apr 2015 All times are EDT. -4 hours from GMT.

  • Wind
    9mph, 11mph gusts
  • Air Temp 46°f
  • Sea Pressure 1002.8mb
  • 8447387 - Borden Flats Light At Fall River, Ma
  • 8447387 - Borden Flats Light At Fall River, Ma

More Historic Weather Station data

Upgrade to MSW Pro to gain access to the past 30 days of data for over 8000 Wavebouys and Weather Stations around the globe.

Join Pro

Comparision Forecast

View Surf forecast
   
mar. 04/28 12:54 9 11 mph 1002.8mb 46f
12:48 8 13 mph 1002.7mb 46f
12:42 10 15 mph 1002.8mb 46f
12:36 13 17 mph 1002.9mb 46f
12:30 10 14 mph 1002.9mb 47f
12:24 17 23 mph 1003mb 47f
12:18 15 18 mph 1003mb 47f
12:12 15 17 mph 1003mb 47f
12:06 11 20 mph 1003mb 47f
12:00 18 23 mph 1003.1mb 47f
lun. 04/27 11:54 17 23 mph 1002.9mb 47f
11:48 13 15 mph 1002.8mb 47f
11:42 13 15 mph 1002.7mb 48f
11:36 13 16 mph 1002.5mb 48f
11:30 11 15 mph 1002.5mb 48f
11:24 13 18 mph 1002.5mb 48f
11:18 14 16 mph 1002.4mb 49f
11:12 15 18 mph 1002.3mb 49f
11:06 16 22 mph 1002.3mb 49f
11:00 14 23 mph 1002mb 51f
10:54 8 11 mph 1001.8mb 51f
10:48 9 13 mph 1001.8mb 51f
10:42 10 15 mph 1001.8mb 51f
10:36 10 16 mph 1001.8mb 51f
10:30 11 15 mph 1001.7mb 51f
10:24 10 13 mph 1001.7mb 51f
10:18 11 15 mph 1001.6mb 52f
10:12 10 15 mph 1001.6mb 52f
10:06 11 15 mph 1001.5mb 52f
10:00 7 10 mph 1001.6mb 52f
9:54 9 11 mph 1001.6mb 52f
9:48 10 16 mph 1001.6mb 52f
9:42 10 14 mph 1001.5mb 52f
9:36 13 16 mph 1001.5mb 52f
9:30 9 13 mph 1001.6mb 51f
9:24 8 11 mph 1001.6mb 51f
9:18 8 10 mph 1001.6mb 51f
9:12 7 8 mph 1001.6mb 51f
9:06 8 10 mph 1001.6mb 51f
9:00 7 10 mph 1001.5mb 51f
8:54 6 7 mph 1001.5mb 51f
8:48 6 8 mph 1001.6mb 51f
8:42 6 9 mph 1001.6mb 50f
8:36 5 7 mph 1001.5mb 50f
8:30 5 6 mph 1001.5mb 50f
8:24 5 7 mph 1001.5mb 50f
8:18 3 5 mph 1001.5mb 50f
8:12 3 5 mph 1001.5mb 50f
8:06 5 6 mph 1001.6mb 50f
8:00 5 6 mph 1001.6mb 50f
7:54 6 7 mph 1001.6mb 50f
7:48 5 7 mph 1001.6mb 50f
7:42 8 10 mph 1001.5mb 50f
7:36 10 13 mph 1001.6mb 50f
7:30 11 14 mph 1001.6mb 50f
7:24 14 16 mph 1001.5mb 50f
7:18 13 16 mph 1001.5mb 50f
7:12 15 20 mph 1001.4mb 51f
7:06 20 23 mph 1001.2mb 52f
7:00 15 22 mph 1001mb 54f
6:54 14 21 mph 1000.9mb 54f
6:48 21 24 mph 1000.6mb 55f
6:42 15 22 mph 1000.6mb 55f
6:36 14 21 mph 1000.5mb 55f
6:30 15 22 mph 1000.5mb 55f
6:24 17 23 mph 1000.4mb 55f
6:18 18 23 mph 1000.4mb 55f
6:12 18 25 mph 1000.3mb 55f
6:06 18 29 mph 1000.2mb 55f
6:00 16 24 mph 1000.3mb 56f
5:54 16 22 mph 1000.2mb 56f
5:48 18 28 mph 1000.2mb 56f
5:42 15 21 mph 1000.1mb 56f
5:36 17 26 mph 1000mb 56f
5:30 13 17 mph 1000mb 56f
5:24 16 22 mph 1000mb 56f
5:18 16 23 mph 999.8mb 57f
5:12 16 22 mph 999.7mb 57f
5:06 14 21 mph 999.6mb 57f
5:00 16 22 mph 999.6mb 57f
4:54 20 24 mph 999.5mb 57f
4:48 16 24 mph 999.5mb 57f
4:42 15 20 mph 999.3mb 57f
4:36 18 23 mph 999.3mb 57f
4:30 14 21 mph 999.3mb 57f
4:24 17 22 mph 999.3mb 57f
4:18 16 21 mph 999.3mb 57f
4:12 21 24 mph 999.2mb 57f
4:06 16 25 mph 999.4mb 57f
4:00 16 22 mph 999.3mb 58f
3:54 15 20 mph 999.3mb 58f
3:48 16 23 mph 999.3mb 58f
3:42 17 25 mph 999.3mb 57f
3:36 17 22 mph 999.3mb 58f
3:30 18 22 mph 999.4mb 57f
3:24 17 21 mph 999.4mb 57f
3:18 14 20 mph 999.5mb 58f
3:12 18 25 mph 999.5mb 57f
3:06 17 23 mph 999.5mb 57f
3:00 20 23 mph 999.5mb 57f
2:54 10 15 mph 999.6mb 57f
2:48 16 20 mph 999.5mb 57f
2:42 16 20 mph 999.6mb 57f
2:36 14 17 mph 999.7mb 55f
2:30 13 17 mph 999.8mb 55f
2:24 16 23 mph 999.8mb 56f
2:18 16 24 mph 1000mb 56f
2:12 14 23 mph 1000.1mb 56f
2:06 9 13 mph 1000.2mb 56f
2:00 13 15 mph 1000.2mb 55f
1:54 18 22 mph 1000.3mb 55f
1:48 14 21 mph 1000.3mb 56f
1:42 17 24 mph 1000.2mb 56f
1:36 15 20 mph 1000.2mb 56f
1:30 14 20 mph 1000.2mb 56f
1:24 15 20 mph 1000.1mb 56f
1:18 17 21 mph 1000mb 57f
1:12 18 25 mph 1000mb 56f
1:06 10 14 mph 1000.1mb 56f
1:00 13 17 mph 1000.3mb 56f
12:54 15 20 mph 1000.3mb 56f
12:48 17 23 mph 1000.3mb 55f
12:42 18 24 mph 1000.3mb 55f
12:36 16 20 mph 1000.5mb 56f
12:30 18 21 mph 1000.5mb 56f
12:24 10 18 mph 1000.6mb 57f
12:18 13 17 mph 1000.8mb 56f
12:12 13 17 mph 1000.9mb 55f
12:06 14 17 mph 1000.8mb 56f
12:00 11 15 mph 1000.8mb 55f
11:54 14 17 mph 1000.7mb 55f
11:48 17 22 mph 1000.8mb 55f
11:42 13 16 mph 1000.9mb 55f
11:36 14 18 mph 1001.1mb 55f
11:30 13 18 mph 1001.2mb 54f
11:24 16 21 mph 1001.2mb 54f
11:18 10 16 mph 1001.3mb 55f
11:12 16 22 mph 1001.2mb 54f
11:06 7 13 mph 1001.3mb 53f
11:00 11 16 mph 1001.4mb 53f
10:54 10 14 mph 1001.5mb 54f
10:48 10 14 mph 1001.5mb 54f
10:42 6 11 mph 1001.6mb 54f
10:36 13 17 mph 1001.6mb 54f
10:30 14 17 mph 1001.6mb 54f
10:24 11 15 mph 1001.6mb 53f
10:18 11 17 mph 1001.7mb 53f
10:12 16 21 mph 1001.6mb 53f
10:06 13 17 mph 1001.7mb 53f
10:00 16 21 mph 1001.7mb 52f
9:54 14 18 mph 1001.7mb 52f
9:48 13 18 mph 1001.7mb 52f
9:42 11 15 mph 1001.7mb 52f
9:36 11 14 mph 1001.7mb 52f
9:30 11 15 mph 1001.8mb 52f
9:24 14 17 mph 1001.8mb 51f
9:18 11 15 mph 1001.8mb 51f
9:12 15 20 mph 1001.8mb 51f
9:06 11 15 mph 1001.9mb 51f
9:00 13 16 mph 1001.9mb 51f
8:54 13 17 mph 1001.9mb 51f
8:48 13 16 mph 1001.9mb 51f
8:42 10 14 mph 1002mb 51f
8:36 13 17 mph 1001.9mb 51f
8:30 14 18 mph 1001.9mb 51f
8:24 14 20 mph 1001.9mb 51f
8:18 8 13 mph 1002mb 51f
8:12 10 14 mph 1002mb 50f
8:06 13 16 mph 1002mb 50f
8:00 9 14 mph 1002mb 50f
7:54 8 14 mph 1002mb 50f
7:48 11 15 mph 1002mb 50f
7:42 13 16 mph 1002mb 50f
7:36 10 13 mph 1002.1mb 50f
7:30 13 15 mph 1002.1mb 50f
7:24 10 13 mph 1002.1mb 50f
7:18 11 16 mph 1002.1mb 51f
7:12 10 15 mph 1002.1mb 51f
7:06 10 14 mph 1002mb 51f
7:00 7 11 mph 1002mb 51f
6:54 8 11 mph 1002mb 50f
6:48 8 11 mph 1002mb 50f
6:42 6 8 mph 1002.1mb 49f
6:36 6 8 mph 1002mb 49f
6:30 6 7 mph 1002mb 49f
6:24 6 7 mph 1002mb 49f
6:18 7 9 mph 1001.9mb 49f
6:12 7 9 mph 1001.9mb 49f
6:06 7 10 mph 1001.9mb 49f
6:00 7 9 mph 1001.8mb 49f
5:54 8 9 mph 1001.8mb 49f
5:48 8 9 mph 1001.7mb 49f
5:42 7 10 mph 1001.6mb 49f
5:36 8 10 mph 1001.6mb 49f
5:30  -  mph 1001.6mb 49f
5:24  -  mph 1001.6mb 49f
5:18 6 7 mph 1001.5mb 49f
5:12 6 8 mph 1001.5mb 49f
5:06 5 7 mph 1001.6mb 49f
5:00 5 6 mph 1001.6mb 49f
4:54 5 7 mph 1001.6mb 49f
4:48 6 7 mph 1001.7mb 49f
4:42 5 7 mph 1001.7mb 49f
4:36 6 7 mph 1001.7mb 49f
4:30 6 7 mph 1001.7mb 49f
4:24 6 8 mph 1001.8mb 49f
4:18 6 7 mph 1001.9mb 49f
4:12 6 7 mph 1001.9mb 49f
4:06 6 7 mph 1001.9mb 49f
4:00 5 7 mph 1002mb 49f
3:54 5 7 mph 1002mb 49f
3:48 5 7 mph 1002mb 49f
3:42 6 7 mph 1002mb 49f
3:36 6 9 mph 1002mb 49f
3:30 6 7 mph 1002.1mb 49f
3:24 6 8 mph 1002.1mb 49f
3:18 6 7 mph 1002.1mb 49f
3:12 7 8 mph 1002.2mb 49f
3:06 6 8 mph 1002.2mb 49f
3:00 6 7 mph 1002.1mb 50f
2:54 6 8 mph 1002.1mb 50f
2:48 5 6 mph 1002.1mb 50f
2:42 6
mph
1002.1mb 50f
2:36 6 8 mph 1002.1mb 50f
2:30 7 8 mph 1002.2mb 50f
2:24 5 6 mph 1002.2mb 50f
2:18 5 6 mph 1002.2mb 50f
2:12 6 7 mph 1002.2mb 50f
2:06 5 6 mph 1002.3mb 50f
2:00 5
mph
1002.3mb 50f
1:54 5 6 mph 1002.3mb 50f
1:48 5
mph
1002.4mb 50f
1:42 5
mph
1002.4mb 50f
1:36 5 6 mph 1002.4mb 49f
1:30 3 5 mph 1002.4mb 49f
1:24 3
mph
1002.4mb 50f
1:18 3 5 mph 1002.4mb 50f
1:12 3 5 mph 1002.4mb 50f
1:06 3 5 mph 1002.5mb 50f
1:00 3 5 mph 1002.4mb 50f
12:54 3 5 mph 1002.4mb 50f
12:48 5 6 mph 1002.5mb 50f
12:42 5 7 mph 1002.5mb 50f
12:36 6 8 mph 1002.5mb 50f
12:30 7 8 mph 1002.5mb 50f
12:24 6 8 mph 1002.5mb 50f
12:18 3 5 mph 1002.5mb 50f
12:12 5 6 mph 1002.5mb 49f
12:06 5 6 mph 1002.4mb 49f
12:00 5 6 mph 1002.4mb 49f
dim. 04/26 11:54 5 6 mph 1002.4mb 49f
11:48 6 7 mph 1002.4mb 49f
11:42 5 6 mph 1002.4mb 49f
11:36 6 7 mph 1002.4mb 49f
11:30 6 7 mph 1002.4mb 49f
11:24 6 7 mph 1002.5mb 49f
11:18 6
mph
1002.5mb 49f
11:12 5 6 mph 1002.5mb 49f
11:06 6
mph
1002.5mb 49f
11:00 6
mph
1002.4mb 49f
10:54 5
mph
1002.5mb 49f
10:48 3 5 mph 1002.5mb 49f
10:42 3 5 mph 1002.5mb 49f
10:36 5
mph
1002.6mb 49f
10:30 3 5 mph 1002.7mb 49f
10:24 5 6 mph 1002.7mb 49f
10:18 6
mph
1002.7mb 49f
10:12 6
mph
1002.7mb 49f
10:06 6
mph
1002.7mb 49f
10:00 6 7 mph 1002.8mb 49f
9:54 6
mph
1002.8mb 50f
9:48 6 7 mph 1002.8mb 50f
9:42 6
mph
1002.9mb 50f
9:36 6
mph
1002.9mb 50f
9:30 6 7 mph 1002.9mb 50f
9:24 5 6 mph 1003mb 50f
9:18 5 6 mph 1003mb 50f
9:12 5 6 mph 1003mb 50f
9:06 6
mph
1003mb 50f
9:00 6 7 mph 1003mb 50f
8:54 6
mph
1003mb 50f
8:48 6 7 mph 1003mb 50f
8:42 6 7 mph 1003mb 50f
8:36 6 7 mph 1003mb 50f
8:30 5 6 mph 1003mb 51f
8:24 6
mph
1003mb 51f
8:18 5 6 mph 1003mb 51f
8:12 6 7 mph 1003mb 51f
8:06 6 7 mph 1003mb 51f
8:00 6 7 mph 1003mb 51f
7:54 6 7 mph 1003mb 51f
7:48 3 5 mph 1003mb 51f
7:42 6 7 mph 1003mb 51f
7:36 7 8 mph 1002.9mb 52f
7:30 7 9 mph 1002.9mb 52f
7:24 9
mph
1002.8mb 52f
7:18 9 10 mph 1002.8mb 52f
7:12 10 11 mph 1002.7mb 52f
7:06 10 11 mph 1002.7mb 52f
7:00 8 11 mph 1002.7mb 53f
6:54 9 11 mph 1002.7mb 53f
6:48 13 14 mph 1002.6mb 53f
6:42 11 13 mph 1002.5mb 52f
6:36 9 13 mph 1002.6mb 53f
6:30  -  1 mph 1002.6mb 55f
6:24  -  2 mph 1002.6mb 55f
6:18 2 3 mph 1002.6mb 55f
6:12 1 3 mph 1002.6mb 55f
6:06  -  mph 1002.7mb 55f
6:00 1 2 mph 1002.7mb 55f
5:54 3 6 mph 1002.6mb 55f
5:48 6 8 mph 1002.6mb 55f
5:42 5 6 mph 1002.6mb 55f
5:36 3 6 mph 1002.6mb 56f
5:30 2 3 mph 1002.6mb 56f
5:24 6 7 mph 1002.6mb 56f
5:18 7 10 mph 1002.6mb 56f
5:12 7 9 mph 1002.7mb 56f
5:06 8 11 mph 1002.6mb 56f
5:00 8 10 mph 1002.7mb 56f
4:54 8 11 mph 1002.7mb 56f
4:48 5 6 mph 1002.7mb 56f
4:42 9 11 mph 1002.6mb 56f
4:36 10 14 mph 1002.7mb 56f
4:30 8 11 mph 1002.7mb 56f
4:24 8 10 mph 1002.7mb 56f
4:18 8 13 mph 1002.8mb 56f
4:12 7 10 mph 1002.8mb 56f
4:06 9 17 mph 1002.7mb 56f
4:00 8 11 mph 1002.7mb 56f
3:54 10 15 mph 1002.6mb 56f
3:48 10 15 mph 1002.7mb 56f
3:42 7 10 mph 1002.8mb 55f
3:36 10 14 mph 1002.7mb 55f
3:30 8 13 mph 1002.8mb 55f
3:24 6 8 mph 1002.8mb 55f
3:18 7 9 mph 1002.8mb 55f
3:12 7 10 mph 1002.8mb 55f
3:06 10 13 mph 1002.8mb 55f
3:00 9 14 mph 1002.9mb 55f
2:54 10 13 mph 1002.9mb 55f
2:48 13 15 mph 1003mb 55f
2:42 10 13 mph 1003mb 55f
2:36 8 11 mph 1003mb 55f
2:30 13 14 mph 1003.1mb 55f
2:24 11 15 mph 1003.1mb 55f
2:18 10 13 mph 1003mb 55f
2:12 11 15 mph 1003mb 55f
2:06 8 10 mph 1003.1mb 55f
2:00 10 14 mph 1003mb 55f
1:54 9 14 mph 1003mb 55f
1:48 5 9 mph 1003mb 55f
1:42 8 10 mph 1003mb 55f
1:36 9 11 mph 1003mb 55f
1:30 10 13 mph 1003mb 55f
1:24 6 9 mph 1003mb 55f
1:18 13 16 mph 1003mb 55f
1:12 8 10 mph 1003mb 55f
1:06 13 16 mph 1003mb 55f
1:00 10 13 mph 1003mb 54f
12:54 5 10 mph 1003.1mb 53f
12:48 6 9 mph 1003.1mb 53f
12:42 6 8 mph 1003.1mb 53f
12:36 5 11 mph 1003.1mb 53f
12:30 8 11 mph 1003.2mb 52f
12:24 8 10 mph 1003.3mb 52f
12:18 9 10 mph 1003.4mb 52f
12:12 9 10 mph 1003.4mb 51f
12:06 9 10 mph 1003.4mb 51f
12:00 9 10 mph 1003.5mb 51f
11:54 9
mph
1003.5mb 51f
11:48 10 11 mph 1003.5mb 51f
11:42 9 11 mph 1003.6mb 51f
11:36 10 13 mph 1003.6mb 51f
11:30 10 11 mph 1003.6mb 51f
11:24 11 13 mph 1003.7mb 51f
11:18 9 10 mph 1003.7mb 51f
11:12 9 11 mph 1003.7mb 51f
11:06 10 11 mph 1003.6mb 51f
11:00 6 7 mph 1003.7mb 52f
10:54 1 2 mph 1003.7mb 52f
10:48 1
mph
1003.8mb 51f
10:42  -  1 mph 1003.9mb 52f
10:36 2 5 mph 1003.9mb 51f
10:30 7 9 mph 1003.9mb 50f
10:24 8
mph
1004mb 51f
10:18 3 5 mph 1004mb 51f
10:12 1 2 mph 1004.1mb 51f
10:06  -  2 mph 1004.1mb 51f
10:00 3 5 mph 1004.1mb 52f
9:54 5 7 mph 1004.1mb 52f
9:48 5 7 mph 1004.2mb 51f
9:42 7 8 mph 1004.2mb 51f
9:36 6 8 mph 1004.3mb 51f
9:30 3 5 mph 1004.3mb 50f
9:24 5 7 mph 1004.3mb 49f
9:18 3 5 mph 1004.3mb 49f
9:12 5 8 mph 1004.3mb 49f
9:06  -  2 mph 1004.4mb 48f
9:00 1 3 mph 1004.4mb 47f
8:54  -  2 mph 1004.6mb 47f
8:48 3 5 mph 1004.5mb 47f
8:42 1 2 mph 1004.6mb 46f
8:36 2 3 mph 1004.6mb 46f
8:30 1 2 mph 1004.6mb 46f
8:24 2 3 mph 1004.6mb 46f
8:18 2 3 mph 1004.7mb 46f
8:12 2 3 mph 1004.8mb 46f
8:06 2 3 mph 1004.8mb 45f
8:00 2
mph
1004.8mb 45f
7:54 1 2 mph 1004.8mb 45f
7:48 2
mph
1004.8mb 44f
7:42 1 2 mph 1004.9mb 44f
7:36  -  1 mph 1004.9mb 44f
7:30 1 2 mph 1004.9mb 44f
7:24 2
mph
1004.8mb 44f
7:18 2
mph
1004.8mb 43f
7:12 1 2 mph 1004.9mb 43f
7:06  -  mph 1004.8mb 43f
7:00  -  mph 1004.9mb 44f
6:54  -  2 mph 1004.9mb 43f
6:48  -  2 mph 1004.9mb 43f
6:42 2 3 mph 1004.9mb 43f
6:36 1 2 mph 1004.8mb 43f
6:30  -  mph 1004.8mb 43f
6:24  -  mph 1004.8mb 43f
6:18  -  mph 1004.9mb 43f
6:12  -  1 mph 1004.7mb 43f
6:06 1 2 mph 1004.7mb 43f
6:00 3 5 mph 1004.8mb 42f
5:54 5 6 mph 1004.7mb 42f
5:48 3
mph
1004.6mb 43f
5:42 2 3 mph 1004.5mb 43f
5:36 2 3 mph 1004.3mb 43f
5:30 3
mph
1004.2mb 43f
5:24 2 3 mph 1004.2mb 43f
5:18 2
mph
1004.2mb 43f
5:12 2 3 mph 1004.2mb 43f
5:06 2 3 mph 1004.2mb 43f
5:00 2 3 mph 1004.2mb 43f
4:54 2 3 mph 1004.3mb 43f
4:48 1 2 mph 1004.3mb 43f
4:42 2
mph
1004.3mb 43f
4:36 3 5 mph 1004.3mb 43f
4:30 2 3 mph 1004.3mb 43f
4:24 3
mph
1004.4mb 43f
4:18 2 3 mph 1004.5mb 43f
4:12 2
mph
1004.4mb 43f
4:06 2
mph
1004.4mb 43f
4:00 2 3 mph 1004.4mb 43f
3:54 2
mph
1004.4mb 43f
3:48 2 3 mph 1004.5mb 43f
3:42 3
mph
1004.5mb 43f
3:36 3
mph
1004.5mb 43f
3:30 2 3 mph 1004.6mb 43f
3:24 3 5 mph 1004.6mb 43f
3:18 3 5 mph 1004.7mb 43f
3:12 3 5 mph 1004.7mb 43f
3:06 2 3 mph 1004.7mb 43f
3:00 5 6 mph 1004.7mb 43f
2:54 6
mph
1004.8mb 43f
2:48 6 7 mph - 44f
2:42 6 7 mph - 44f
2:36 6
mph
- 44f
2:30 5 6 mph 1005mb 45f
2:24 3 5 mph 1005mb 45f
2:18 3 5 mph 1005mb 45f
2:12 5 6 mph 1005.1mb 45f
2:06 3 5 mph 1005.1mb 46f
2:00 5 6 mph 1005.1mb 46f
1:54 6 8 mph 1005.3mb 46f
1:48 8 9 mph 1005.4mb 46f
1:42 8 10 mph 1005.3mb 46f
1:36 8 11 mph 1005.4mb 47f
1:30 9 13 mph 1005.4mb 47f
1:24 9 13 mph 1005.5mb 47f
1:18 7 9 mph 1005.5mb 47f
1:12 6 7 mph 1005.5mb 47f
1:06 6 8 mph 1005.5mb 47f
1:00 6 8 mph 1005.5mb 47f
12:54 7 8 mph 1005.5mb 47f
12:48 6 7 mph 1005.5mb 47f
12:42 7
mph
1005.6mb 47f
12:36 7 8 mph 1005.5mb 47f
12:30 7 9 mph 1005.6mb 47f
12:24 7 9 mph 1005.6mb 47f
12:18 6 8 mph 1005.7mb 47f
12:12 6
mph
1005.7mb 47f
12:06 5 6 mph 1005.8mb 47f
12:00 5 6 mph 1005.8mb 48f
sam. 04/25 11:54 5 6 mph 1005.8mb 48f
11:48 6
mph
1005.8mb 48f
11:42 6 7 mph 1005.8mb 48f
11:36 6 7 mph 1005.8mb 48f
11:30 7 8 mph 1005.8mb 48f
11:24 6 7 mph 1005.8mb 48f
11:18 7 9 mph 1005.8mb 49f
11:12 7 8 mph 1005.8mb 49f
11:06 6 7 mph 1005.7mb 49f
11:00 8 9 mph 1005.6mb 49f
10:54 7 8 mph 1005.7mb 49f
10:48 7 8 mph 1005.8mb 49f
10:42 7 8 mph 1005.8mb 50f
10:36 6 8 mph 1005.7mb 50f
10:30 6 9 mph 1005.7mb 50f
10:24 7 9 mph 1005.7mb 50f
10:18 7 9 mph 1005.7mb 50f
10:12 7 8 mph 1005.7mb 50f
10:06 8 9 mph 1005.7mb 50f
10:00 8 9 mph 1005.7mb 50f
9:54 7 8 mph 1005.7mb 50f
9:48 8 9 mph 1005.7mb 50f
9:42 7 8 mph 1005.8mb 50f
9:36 8 10 mph 1005.8mb 50f
9:30 7 8 mph 1005.8mb 50f
9:24 8 9 mph 1005.8mb 50f
9:18 8 9 mph 1005.7mb 51f
9:12 7 8 mph 1005.8mb 51f
9:06 6 8 mph 1005.7mb 51f
9:00 7 8 mph 1005.7mb 51f
8:54 6 7 mph 1005.7mb 51f
8:48 6 7 mph 1005.6mb 51f
8:42 5 6 mph 1005.5mb 51f
8:36 6 7 mph 1005.4mb 51f
8:30 6 7 mph 1005.3mb 51f
8:24 6 7 mph 1005.2mb 51f
8:18 6 7 mph 1005.1mb 51f
8:12 6 7 mph 1005.1mb 51f
8:06 6 7 mph 1005mb 51f
8:00 7 8 mph 1004.9mb 51f
7:54 7 8 mph 1004.9mb 51f
7:48 8 9 mph 1004.9mb 51f
7:42 9 11 mph 1004.7mb 51f
7:36 9 13 mph 1004.7mb 52f
7:30 9 13 mph 1004.7mb 52f
7:24 9 13 mph 1004.7mb 51f
7:18 8 10 mph 1004.8mb 51f
7:12 9 11 mph 1004.7mb 52f
7:06 9 13 mph 1004.7mb 53f
7:00 9 14 mph 1004.7mb 53f
6:54 10 14 mph 1004.5mb 53f
6:48 10 16 mph 1004.5mb 54f
6:42 9 13 mph 1004.4mb 55f
6:36 13 17 mph 1004.2mb 56f
6:30 10 13 mph 1004.3mb 56f
6:24 13 15 mph 1004.3mb 56f
6:18 11 15 mph 1004.2mb 56f
6:12 10 14 mph 1004.1mb 56f
6:06 10 15 mph 1004.1mb 56f
6:00 11 17 mph 1004.1mb 56f
5:54 11 16 mph 1004.1mb 56f
5:48 13 15 mph 1004mb 56f
5:42 11 14 mph 1004mb 57f
5:36 13 17 mph 1004mb 57f
5:30 10 14 mph 1004mb 57f
5:24 13 20 mph 1004mb 57f
5:18 13 18 mph 1004mb 57f
5:12 14 20 mph 1004mb 57f
5:06 11 16 mph 1004mb 57f
5:00 15 21 mph 1003.9mb 58f
4:54 10 16 mph 1003.9mb 58f
4:48 11 15 mph 1003.9mb 57f
4:42 10 14 mph 1003.9mb 56f
4:36 14 17 mph 1003.9mb 56f
4:30 14 18 mph 1003.9mb 56f
4:24 15 20 mph 1003.9mb 57f
4:18 11 15 mph 1003.9mb 57f
4:12 8 11 mph 1004mb 57f
4:06 10 15 mph 1004mb 57f
4:00 11 17 mph 1004.2mb 56f
3:54 9 15 mph 1004.3mb 56f
3:48 10 15 mph 1004.4mb 55f
3:42 17 24 mph 1004.4mb 55f
3:36 11 16 mph 1004.4mb 55f
3:30 13 17 mph 1004.4mb 57f
3:24 16 21 mph 1004.4mb 56f
3:18 18 22 mph 1004.4mb 55f
3:12 17 22 mph 1004.5mb 56f
3:06 16 23 mph 1004.5mb 55f
3:00 18 24 mph 1004.5mb 55f
2:54 17 24 mph 1004.5mb 55f
2:48 13 16 mph 1004.6mb 55f
2:42 11 18 mph 1004.7mb 55f
2:36 11 14 mph 1004.8mb 53f
2:30 11 16 mph 1004.8mb 54f
2:24 15 21 mph 1004.8mb 54f
2:18 16 23 mph 1004.9mb 54f
2:12 15 18 mph 1005mb 53f
2:06 14 18 mph 1005.1mb 54f
2:00 17 23 mph 1005.1mb 52f
1:54 21 26 mph 1005.1mb 53f
1:48 21 26 mph 1005.1mb 52f
1:42 9 17 mph 1005.4mb 52f
1:36 11 16 mph 1005.5mb 53f
1:30 14 18 mph 1005.5mb 53f
1:24 15 24 mph 1005.5mb 51f
1:18 10 16 mph 1005.7mb 52f
1:12 7 13 mph 1005.8mb 51f
1:06 9 15 mph 1005.9mb 51f
1:00 13 18 mph 1005.9mb 51f
12:54 9 10 mph 1005.9mb 50f
12:48 9 11 mph 1006mb 50f
12:42 11 15 mph 1006.1mb 50f
12:36 7 10 mph 1006.2mb 49f
12:30 14 18 mph 1006.2mb 49f
12:24 11 15 mph 1006.3mb 49f
12:18 15 18 mph 1006.4mb 49f
12:12 9 11 mph 1006.5mb 48f
12:06 9 11 mph 1006.6mb 48f
12:00 13 16 mph 1006.7mb 48f
11:54 10 14 mph 1006.7mb 48f
11:48 11 14 mph 1006.8mb 47f
11:42 7 10 mph 1006.8mb 47f
11:36 13 15 mph 1006.9mb 47f
11:30 10 16 mph 1006.9mb 46f
11:24 11 14 mph 1007.1mb 46f
11:18 8 15 mph 1007.2mb 45f
11:12 13 15 mph 1007.2mb 45f
11:06 8 10 mph 1007.2mb 45f
11:00 8 13 mph 1007.3mb 45f
10:54 10 14 mph 1007.3mb 44f
10:48 9 13 mph 1007.4mb 44f
10:42 7 11 mph 1007.5mb 44f
10:36 10 15 mph 1007.5mb 43f
10:30 7 9 mph 1007.6mb 43f
10:24 14 16 mph 1007.6mb 43f
10:18 11 16 mph 1007.8mb 42f
10:12 8 13 mph 1007.9mb 42f
10:06 10 14 mph 1007.9mb 43f
10:00 14 20 mph 1008mb 43f
9:54 8 10 mph 1008mb 43f
9:48 13 15 mph 1008mb 42f
9:42 14 18 mph 1008mb 42f
9:36 13 15 mph 1008mb 42f
9:30 10 13 mph 1008mb 41f
9:24 8 14 mph 1008.1mb 41f
9:18 14 18 mph 1008.2mb 40f
9:12 13 15 mph 1008.2mb 40f
9:06 14 16 mph 1008.3mb 40f
9:00 13 17 mph 1008.4mb 40f
8:54 14 18 mph 1008.6mb 40f
8:48 16 22 mph 1008.8mb 40f
8:42 10 15 mph 1008.8mb 39f
8:36 13 20 mph 1008.7mb 39f
8:30 15 18 mph 1008.8mb 39f
8:24 16 18 mph 1009mb 38f
8:18 15 22 mph 1009mb 38f
8:12 16 18 mph 1008.9mb 38f
8:06 14 17 mph 1009.1mb 38f
8:00 14 16 mph 1009.1mb 38f
7:54 17 21 mph 1009.1mb 38f
7:48 14 16 mph 1009.2mb 38f
7:42 14 16 mph 1009.3mb 38f
7:36 17 22 mph 1009.2mb 38f
7:30 16 20 mph 1009.2mb 38f
7:24 16 21 mph 1009.1mb 38f
7:18 16 20 mph 1009.1mb 38f
7:12 17 21 mph 1009.1mb 38f
7:06 16 21 mph 1009.2mb 38f
7:00 17 20 mph 1009.2mb 38f
6:54 16 21 mph 1009.3mb 38f
6:48 17 22 mph 1009.2mb 38f
6:42 16 20 mph 1009.2mb 38f
6:36 16 21 mph 1009.2mb 38f
6:30 17 20 mph 1009.1mb 38f
6:24 18 22 mph 1009.1mb 38f
6:18 17 21 mph 1009mb 38f
6:12 18 22 mph 1008.9mb 38f
6:06 18 22 mph 1008.9mb 38f
6:00 16 18 mph 1008.9mb 38f
5:54 17 21 mph 1008.8mb 38f
5:48 16 20 mph 1008.8mb 38f
5:42 16 20 mph 1008.7mb 38f
5:36 16 21 mph 1008.6mb 38f
5:30 16 18 mph 1008.5mb 38f
5:24 16 20 mph 1008.5mb 38f
5:18 15 16 mph 1008.5mb 38f
5:12 15 20 mph 1008.4mb 38f
5:06 16 20 mph 1008.4mb 38f
5:00 15 17 mph 1008.4mb 38f
4:54 15 17 mph 1008.3mb 38f
4:48 14 18 mph 1008.2mb 38f
4:42 14 16 mph 1008.2mb 38f
4:36 15 18 mph 1008.2mb 38f
4:30 15 17 mph 1008.2mb 38f
4:24 15 17 mph 1008.3mb 38f
4:18 15 18 mph 1008.3mb 38f
4:12 14 17 mph 1008.4mb 38f
4:06 14 17 mph 1008.4mb 38f
4:00 15 20 mph 1008.4mb 38f
3:54 15 17 mph 1008.4mb 38f
3:48 17 20 mph 1008.4mb 38f
3:42 14 17 mph 1008.5mb 39f
3:36 14 17 mph 1008.5mb 38f
3:30 14 17 mph 1008.4mb 39f
3:24 13 16 mph 1008.6mb 39f
3:18 14 18 mph 1008.5mb 39f
3:12 15 18 mph 1008.5mb 39f
3:06 15 20 mph 1008.5mb 39f
3:00 15 20 mph 1008.5mb 39f
2:54 14 16 mph 1008.5mb 39f
2:48 13 15 mph 1008.5mb 39f
2:42 13 15 mph 1008.5mb 39f
2:36 14 15 mph 1008.5mb 39f
2:30 13 14 mph 1008.5mb 40f
2:24 13 15 mph 1008.5mb 40f
2:18 14 16 mph 1008.5mb 40f
2:12 13 15 mph 1008.5mb 40f
2:06 14 16 mph 1008.4mb 40f
2:00 13 16 mph 1008.5mb 40f
1:54 11 14 mph 1008.5mb 40f
1:48 11 15 mph 1008.5mb 40f
1:42 13 15 mph 1008.6mb 40f
1:36 11 14 mph 1008.6mb 40f
1:30 14 20 mph 1008.6mb 40f
1:24 11 14 mph 1008.7mb 40f
1:18 14 17 mph 1008.7mb 40f
1:12 13 15 mph 1008.8mb 40f
1:06 13 17 mph 1008.8mb 41f
1:00 14 15 mph 1008.8mb 41f
12:54 13 18 mph 1008.9mb 41f
12:48 14 17 mph 1008.9mb 41f
12:42 14 20 mph 1008.9mb 41f
12:36 13 17 mph 1008.9mb 41f
12:30 11 16 mph 1008.8mb 41f
12:24 13 18 mph 1008.9mb 41f
12:18 14 16 mph 1009mb 41f
12:12 14 17 mph 1009mb 41f
12:06 14 18 mph 1009mb 41f
12:00 14 20 mph 1008.9mb 41f
ven. 04/24 11:54 14 18 mph 1009mb 41f
11:48 11 17 mph 1009mb 41f
11:42 13 17 mph 1008.9mb 41f
11:36 14 17 mph 1008.8mb 42f
11:30 14 16 mph 1008.9mb 41f
11:24 16 24 mph 1008.9mb 41f
11:18 13 18 mph 1009mb 42f
11:12 14 17 mph 1009mb 42f
11:06 17 23 mph 1009mb 42f
11:00 15 21 mph 1009.1mb 42f
10:54 15 21 mph 1009.1mb 42f
10:48 17 25 mph 1009.1mb 42f
10:42 16 24 mph 1009.1mb 42f
10:36 15 21 mph 1009.1mb 42f
10:30 15 20 mph 1009.1mb 42f
10:24 14 18 mph 1009.1mb 42f
10:18 14 20 mph 1009.1mb 42f
10:12 13 18 mph 1009.2mb 43f
10:06 13 15 mph 1009.1mb 43f
10:00 14 20 mph 1009mb 43f
9:54 14 18 mph 1008.9mb 43f
9:48 14 18 mph 1008.9mb 43f
9:42 15 18 mph 1008.8mb 43f
9:36 14 20 mph 1008.8mb 43f
9:30 14 16 mph 1008.7mb 43f
9:24 14 16 mph 1008.8mb 44f
9:18 14 18 mph 1008.7mb 44f
9:12 14 20 mph 1008.7mb 44f
9:06 14 17 mph 1008.7mb 44f
9:00 17 22 mph 1008.6mb 44f
8:54 18 24 mph 1008.5mb 44f
8:48 18 25 mph 1008.4mb 44f
8:42 20 24 mph 1008.3mb 44f
8:36 18 25 mph 1008.4mb 44f
8:30 16 24 mph 1008.3mb 44f
8:24 15 18 mph 1008.2mb 44f
8:18 15 21 mph 1008.1mb 44f
8:12 15 21 mph 1008.1mb 44f
8:06 16 22 mph 1007.9mb 45f
8:00 22 28 mph 1007.8mb 45f
7:54 22 26 mph 1007.8mb 45f
7:48 17 23 mph 1007.8mb 45f
7:42 20 25 mph 1007.7mb 45f
7:36 20 29 mph 1007.7mb 45f
7:30 23 29 mph 1007.6mb 46f
7:24 18 24 mph 1007.6mb 46f
7:18 16 20 mph 1007.5mb 46f
7:12 21 29 mph 1007.3mb 46f
7:06 22 31 mph 1007.2mb 46f
7:00 23 30 mph 1007.1mb 46f
6:54 20 31 mph 1007mb 46f
6:48 23 26 mph 1006.8mb 46f
6:42 24 30 mph 1006.7mb 47f
6:36 21 26 mph 1006.7mb 47f
6:30 22 25 mph 1006.6mb 47f
6:24 25 31 mph 1006.5mb 47f
6:18 22 28 mph 1006.4mb 47f
6:12 20 24 mph 1006.4mb 48f
6:06 17 24 mph 1006.4mb 48f
6:00 20 24 mph 1006.4mb 48f
5:54 21 26 mph 1006.4mb 48f
5:48 21 25 mph 1006.3mb 47f
5:42 21 26 mph 1006.3mb 48f
5:36 18 23 mph 1006.3mb 47f
5:30 13 20 mph 1006.3mb 48f
5:24 16 21 mph 1006.3mb 48f
5:18 18 23 mph 1006.2mb 49f
5:12 20 25 mph 1006.1mb 49f
5:06 18 24 mph 1006.1mb 48f
5:00 18 22 mph 1006.1mb 48f
4:54 16 24 mph 1006.1mb 49f
4:48 18 22 mph 1005.9mb 50f
4:42 17 22 mph 1005.9mb 49f
4:36 21 24 mph 1005.8mb 49f
4:30 16 21 mph 1005.8mb 49f
4:24 16 20 mph 1005.8mb 49f
4:18 17 23 mph 1005.7mb 49f
4:12 15 21 mph 1005.8mb 49f
4:06 14 20 mph 1005.7mb 49f
4:00 15 18 mph 1005.7mb 48f
3:54 14 17 mph 1005.7mb 49f
3:48 17 21 mph 1005.6mb 48f
3:42 16 22 mph 1005.7mb 49f
3:36 17 22 mph 1005.5mb 49f
3:30 16 23 mph 1005.4mb 49f
3:24 16 21 mph 1005.4mb 49f
3:18 18 23 mph 1005.3mb 48f
3:12 17 21 mph 1005.3mb 47f
3:06 20 25 mph 1005.3mb 48f
3:00 20 28 mph 1005.3mb 48f
2:54 16 21 mph 1005.4mb 47f
2:48 16 20 mph 1005.4mb 47f
2:42 21 24 mph 1005.4mb 47f
2:36 17 22 mph 1005.5mb 47f
2:30 21 24 mph 1005.5mb 47f
2:24 17 21 mph 1005.5mb 47f
2:18 16 22 mph 1005.7mb 47f
2:12 21 23 mph 1005.7mb 47f
2:06 20 25 mph 1005.7mb 47f
2:00 15 21 mph 1005.9mb 47f
1:54 14 20 mph 1005.9mb 46f
1:48 17 25 mph 1005.9mb 47f
1:42 15 20 mph 1006mb 47f
1:36 16 20 mph 1006mb 46f
1:30 20 24 mph 1005.9mb 46f
1:24 16 22 mph 1005.9mb 46f
1:18 18 22 mph 1006mb 46f
1:12 16 24 mph 1006mb 46f
1:06 18 22 mph 1006mb 46f
1:00 21 24 mph 1006mb 46f
12:54 15 18 mph 1006.1mb 46f
12:48 16 23 mph 1006.1mb 46f
12:42 21 29 mph 1006mb 46f
12:36 20 24 mph 1006mb 45f
12:30 18 24 mph 1006.1mb 45f
12:24 15 22 mph 1006.1mb 45f
12:18 11 21 mph 1006.3mb 45f
12:12 15 22 mph 1006.3mb 45f
12:06 20 32 mph 1006.2mb 45f
12:00 22 26 mph 1006.3mb 45f
11:54 11 17 mph 1006.5mb 45f
11:48 21 25 mph 1006.3mb 45f
11:42 17 23 mph 1006.4mb 45f
11:36 14 23 mph 1006.5mb 44f
11:30 15 21 mph 1006.5mb 45f
11:24 17 22 mph 1006.6mb 45f
11:18 17 23 mph 1006.5mb 44f
11:12 17 23 mph 1006.5mb 45f
11:06 16 22 mph 1006.7mb 44f
11:00 16 22 mph 1006.7mb 44f
10:54 16 23 mph 1006.7mb 44f
10:48 14 23 mph 1006.8mb 44f
10:42 13 15 mph 1006.9mb 43f
10:36 15 23 mph 1006.9mb 43f
10:30 18 24 mph 1006.9mb 43f
10:24 14 17 mph 1006.9mb 43f
10:18 16 22 mph 1007mb 43f
10:12 15 21 mph 1007mb 43f
10:06 21 24 mph 1007mb 42f
10:00 18 23 mph 1007mb 42f
9:54 17 22 mph 1007.1mb 42f
9:48 15 23 mph 1007.2mb 41f
9:42 20 29 mph 1007.2mb 41f
9:36 20 24 mph 1007.2mb 41f
9:30 22 30 mph 1007.2mb 41f
9:24 16 21 mph 1007.2mb 41f
9:18 20 26 mph 1007.1mb 41f
9:12 22 26 mph 1007.1mb 41f
9:06 18 25 mph 1007.1mb 41f
9:00 21 28 mph 1007mb 41f
8:54 18 25 mph 1007.1mb 40f
8:48 15 20 mph 1007.2mb 41f
8:42 17 23 mph 1007.1mb 40f
8:36 18 22 mph 1007.2mb 40f
8:30 18 24 mph 1007.1mb 40f
8:24 17 24 mph 1007.2mb 40f
8:18 21 28 mph 1007.1mb 40f
8:12 17 22 mph 1007.1mb 40f
8:06 17 23 mph 1007.1mb 40f
8:00 16 18 mph 1007.1mb 40f
7:54 16 22 mph 1007.1mb 40f
7:48 20 25 mph 1007.1mb 40f
7:42 20 23 mph 1007.1mb 40f
7:36 18 25 mph 1007mb 40f
7:30 20 23 mph 1006.9mb 40f
7:24 20 24 mph 1007mb 40f
7:18 16 21 mph 1007mb 40f
7:12 18 26 mph 1006.9mb 40f
7:06 17 23 mph 1007mb 40f
7:00 17 22 mph 1006.9mb 39f
6:54 15 21 mph 1006.9mb 39f
6:48 14 17 mph 1006.9mb 39f
6:42 15 21 mph 1006.9mb 39f
6:36 14 17 mph 1006.8mb 39f
6:30 11 15 mph 1006.9mb 39f
6:24 14 17 mph 1006.8mb 39f
6:18 13 17 mph 1006.8mb 39f
6:12 13 20 mph 1006.7mb 39f
6:06 16 21 mph 1006.7mb 39f
6:00 13 18 mph 1006.7mb 39f
5:54 16 21 mph 1006.6mb 39f